sensor_id;sensor_type;location;lat;lon;timestamp;temperature;humidity
75387;DHT22;63966;47.914;22.266;2024-01-16T00:00:22;-0.20;80.01
75387;DHT22;63966;47.914;22.266;2024-01-16T00:03:25;-0.03;79.57
75387;DHT22;63966;47.914;22.266;2024-01-16T00:06:29;0.12;78.87
75387;DHT22;63966;47.914;22.266;2024-01-16T00:09:35;-0.10;79.68
75387;DHT22;63966;47.914;22.266;2024-01-16T00:12:39;0.13;79.00
75387;DHT22;63966;47.914;22.266;2024-01-16T00:15:43;0.05;78.96
75387;DHT22;63966;47.914;22.266;2024-01-16T00:18:46;-0.05;78.85
75387;DHT22;63966;47.914;22.266;2024-01-16T00:21:50;-0.50;80.36
75387;DHT22;63966;47.914;22.266;2024-01-16T00:24:54;-0.37;80.41
75387;DHT22;63966;47.914;22.266;2024-01-16T00:27:58;-0.47;79.98
75387;DHT22;63966;47.914;22.266;2024-01-16T00:31:01;-0.71;81.07
75387;DHT22;63966;47.914;22.266;2024-01-16T00:34:10;-0.46;80.02
75387;DHT22;63966;47.914;22.266;2024-01-16T00:37:14;-0.63;80.63
75387;DHT22;63966;47.914;22.266;2024-01-16T00:40:17;-0.70;81.02
75387;DHT22;63966;47.914;22.266;2024-01-16T00:43:21;-0.77;81.45
75387;DHT22;63966;47.914;22.266;2024-01-16T00:46:24;-0.71;80.93
75387;DHT22;63966;47.914;22.266;2024-01-16T00:49:28;-0.84;81.41
75387;DHT22;63966;47.914;22.266;2024-01-16T00:52:32;-0.87;81.54
75387;DHT22;63966;47.914;22.266;2024-01-16T00:55:35;-0.88;81.20
75387;DHT22;63966;47.914;22.266;2024-01-16T00:58:39;-1.01;81.72
75387;DHT22;63966;47.914;22.266;2024-01-16T01:01:43;-1.08;82.05
75387;DHT22;63966;47.914;22.266;2024-01-16T01:04:47;-1.11;82.10
75387;DHT22;63966;47.914;22.266;2024-01-16T01:07:51;-1.16;82.17
75387;DHT22;63966;47.914;22.266;2024-01-16T01:10:54;-1.23;82.23
75387;DHT22;63966;47.914;22.266;2024-01-16T01:13:58;-1.39;82.86
75387;DHT22;63966;47.914;22.266;2024-01-16T01:17:02;-1.46;83.14
75387;DHT22;63966;47.914;22.266;2024-01-16T01:20:10;-1.57;83.18
75387;DHT22;63966;47.914;22.266;2024-01-16T01:23:15;-1.56;83.26
75387;DHT22;63966;47.914;22.266;2024-01-16T01:26:19;-1.59;83.33
75387;DHT22;63966;47.914;22.266;2024-01-16T01:29:22;-1.63;83.34
75387;DHT22;63966;47.914;22.266;2024-01-16T01:32:26;-1.62;83.37
75387;DHT22;63966;47.914;22.266;2024-01-16T01:35:30;-1.80;83.95
75387;DHT22;63966;47.914;22.266;2024-01-16T01:38:34;-1.85;84.37
75387;DHT22;63966;47.914;22.266;2024-01-16T01:41:38;-1.90;84.45
75387;DHT22;63966;47.914;22.266;2024-01-16T01:44:41;-1.95;84.71
75387;DHT22;63966;47.914;22.266;2024-01-16T01:47:46;-2.04;84.90
75387;DHT22;63966;47.914;22.266;2024-01-16T01:50:49;-1.99;84.77
75387;DHT22;63966;47.914;22.266;2024-01-16T01:53:53;-1.91;84.41
75387;DHT22;63966;47.914;22.266;2024-01-16T01:56:57;-1.87;84.34
75387;DHT22;63966;47.914;22.266;2024-01-16T02:00:01;-1.94;84.59
75387;DHT22;63966;47.914;22.266;2024-01-16T02:03:14;-1.97;84.71
75387;DHT22;63966;47.914;22.266;2024-01-16T02:06:18;-1.99;84.86
75387;DHT22;63966;47.914;22.266;2024-01-16T02:09:22;-1.87;84.46
75387;DHT22;63966;47.914;22.266;2024-01-16T02:12:25;-1.94;84.25
75387;DHT22;63966;47.914;22.266;2024-01-16T02:15:29;-1.92;84.66
75387;DHT22;63966;47.914;22.266;2024-01-16T02:18:32;-1.67;82.73
75387;DHT22;63966;47.914;22.266;2024-01-16T02:21:57;-2.09;84.74
75387;DHT22;63966;47.914;22.266;2024-01-16T02:25:02;-2.22;85.75
75387;DHT22;63966;47.914;22.266;2024-01-16T02:28:06;-2.19;85.63
75387;DHT22;63966;47.914;22.266;2024-01-16T02:31:09;-1.95;84.35
75387;DHT22;63966;47.914;22.266;2024-01-16T02:34:13;-1.94;84.49
75387;DHT22;63966;47.914;22.266;2024-01-16T02:37:16;-2.06;85.23
75387;DHT22;63966;47.914;22.266;2024-01-16T02:40:20;-1.95;84.69
75387;DHT22;63966;47.914;22.266;2024-01-16T02:43:23;-1.91;84.13
75387;DHT22;63966;47.914;22.266;2024-01-16T02:46:29;-1.90;84.01
75387;DHT22;63966;47.914;22.266;2024-01-16T02:49:33;-1.91;83.94
75387;DHT22;63966;47.914;22.266;2024-01-16T02:52:36;-1.94;84.20
75387;DHT22;63966;47.914;22.266;2024-01-16T02:55:40;-2.06;84.64
75387;DHT22;63966;47.914;22.266;2024-01-16T02:58:43;-2.16;85.06
75387;DHT22;63966;47.914;22.266;2024-01-16T03:01:46;-2.35;86.04
75387;DHT22;63966;47.914;22.266;2024-01-16T03:04:50;-2.22;85.53
75387;DHT22;63966;47.914;22.266;2024-01-16T03:07:54;-2.31;85.97
75387;DHT22;63966;47.914;22.266;2024-01-16T03:10:57;-2.38;86.07
75387;DHT22;63966;47.914;22.266;2024-01-16T03:14:01;-2.22;85.96
75387;DHT22;63966;47.914;22.266;2024-01-16T03:17:04;-2.12;85.57
75387;DHT22;63966;47.914;22.266;2024-01-16T03:20:09;-2.21;85.33
75387;DHT22;63966;47.914;22.266;2024-01-16T03:23:12;-2.36;86.00
75387;DHT22;63966;47.914;22.266;2024-01-16T03:26:17;-2.25;85.53
75387;DHT22;63966;47.914;22.266;2024-01-16T03:29:20;-2.40;86.14
75387;DHT22;63966;47.914;22.266;2024-01-16T03:32:24;-2.39;86.35
75387;DHT22;63966;47.914;22.266;2024-01-16T03:35:28;-2.06;85.38
75387;DHT22;63966;47.914;22.266;2024-01-16T03:38:31;-2.16;85.16
75387;DHT22;63966;47.914;22.266;2024-01-16T03:41:35;-2.19;85.19
75387;DHT22;63966;47.914;22.266;2024-01-16T03:44:41;-2.05;84.64
75387;DHT22;63966;47.914;22.266;2024-01-16T03:47:45;-2.19;85.42
75387;DHT22;63966;47.914;22.266;2024-01-16T03:50:49;-2.26;85.96
75387;DHT22;63966;47.914;22.266;2024-01-16T03:53:52;-2.18;85.42
75387;DHT22;63966;47.914;22.266;2024-01-16T03:56:56;-2.26;86.28
75387;DHT22;63966;47.914;22.266;2024-01-16T04:00:00;-2.22;86.00
75387;DHT22;63966;47.914;22.266;2024-01-16T04:03:07;-2.38;86.41
75387;DHT22;63966;47.914;22.266;2024-01-16T04:06:20;-2.45;86.41
75387;DHT22;63966;47.914;22.266;2024-01-16T04:09:23;-2.50;86.78
75387;DHT22;63966;47.914;22.266;2024-01-16T04:12:27;-2.45;86.52
75387;DHT22;63966;47.914;22.266;2024-01-16T04:15:30;-2.54;86.66
75387;DHT22;63966;47.914;22.266;2024-01-16T04:18:38;-2.54;86.50
75387;DHT22;63966;47.914;22.266;2024-01-16T04:21:42;-2.52;87.02
75387;DHT22;63966;47.914;22.266;2024-01-16T04:24:45;-2.66;86.91
75387;DHT22;63966;47.914;22.266;2024-01-16T04:27:50;-2.59;87.13
75387;DHT22;63966;47.914;22.266;2024-01-16T04:30:53;-2.67;87.08
75387;DHT22;63966;47.914;22.266;2024-01-16T04:33:57;-2.66;87.12
75387;DHT22;63966;47.914;22.266;2024-01-16T04:37:00;-2.63;87.65
75387;DHT22;63966;47.914;22.266;2024-01-16T04:40:05;-2.66;87.20
75387;DHT22;63966;47.914;22.266;2024-01-16T04:43:09;-2.74;87.59
75387;DHT22;63966;47.914;22.266;2024-01-16T04:46:13;-2.64;87.51
75387;DHT22;63966;47.914;22.266;2024-01-16T04:49:17;-2.53;87.00
75387;DHT22;63966;47.914;22.266;2024-01-16T04:52:21;-2.73;87.51
75387;DHT22;63966;47.914;22.266;2024-01-16T04:55:25;-2.48;87.14
75387;DHT22;63966;47.914;22.266;2024-01-16T04:58:28;-2.66;87.24
75387;DHT22;63966;47.914;22.266;2024-01-16T05:01:32;-2.52;86.52
75387;DHT22;63966;47.914;22.266;2024-01-16T05:04:37;-2.77;87.74
75387;DHT22;63966;47.914;22.266;2024-01-16T05:07:41;-2.85;87.93
75387;DHT22;63966;47.914;22.266;2024-01-16T05:10:45;-2.91;88.46
75387;DHT22;63966;47.914;22.266;2024-01-16T05:13:48;-2.98;88.42
75387;DHT22;63966;47.914;22.266;2024-01-16T05:16:52;-3.01;88.62
75387;DHT22;63966;47.914;22.266;2024-01-16T05:19:55;-3.04;88.60
75387;DHT22;63966;47.914;22.266;2024-01-16T05:22:59;-3.01;88.47
75387;DHT22;63966;47.914;22.266;2024-01-16T05:26:03;-3.02;88.61
75387;DHT22;63966;47.914;22.266;2024-01-16T05:29:06;-2.95;88.28
75387;DHT22;63966;47.914;22.266;2024-01-16T05:32:10;-3.00;88.35
75387;DHT22;63966;47.914;22.266;2024-01-16T05:35:13;-3.07;88.52
75387;DHT22;63966;47.914;22.266;2024-01-16T05:38:17;-3.00;87.96
75387;DHT22;63966;47.914;22.266;2024-01-16T05:41:22;-2.97;87.84
75387;DHT22;63966;47.914;22.266;2024-01-16T05:44:25;-2.94;87.69
75387;DHT22;63966;47.914;22.266;2024-01-16T05:47:28;-2.91;87.48
75387;DHT22;63966;47.914;22.266;2024-01-16T05:50:35;-2.90;87.46
75387;DHT22;63966;47.914;22.266;2024-01-16T05:53:39;-2.80;86.61
75387;DHT22;63966;47.914;22.266;2024-01-16T05:56:43;-3.02;87.23
75387;DHT22;63966;47.914;22.266;2024-01-16T05:59:46;-2.83;86.41
75387;DHT22;63966;47.914;22.266;2024-01-16T06:02:49;-3.11;87.34
75387;DHT22;63966;47.914;22.266;2024-01-16T06:05:53;-3.25;87.80
75387;DHT22;63966;47.914;22.266;2024-01-16T06:08:57;-3.18;87.69
75387;DHT22;63966;47.914;22.266;2024-01-16T06:12:02;-3.35;88.33
75387;DHT22;63966;47.914;22.266;2024-01-16T06:15:07;-3.38;88.58
75387;DHT22;63966;47.914;22.266;2024-01-16T06:18:10;-3.40;88.81
75387;DHT22;63966;47.914;22.266;2024-01-16T06:21:15;-3.38;88.91
75387;DHT22;63966;47.914;22.266;2024-01-16T06:24:19;-3.32;88.69
75387;DHT22;63966;47.914;22.266;2024-01-16T06:27:23;-3.28;88.43
75387;DHT22;63966;47.914;22.266;2024-01-16T06:30:26;-3.21;88.28
75387;DHT22;63966;47.914;22.266;2024-01-16T06:33:30;-3.21;88.05
75387;DHT22;63966;47.914;22.266;2024-01-16T06:36:33;-3.11;88.03
75387;DHT22;63966;47.914;22.266;2024-01-16T06:39:37;-3.05;88.04
75387;DHT22;63966;47.914;22.266;2024-01-16T06:42:41;-2.80;87.36
75387;DHT22;63966;47.914;22.266;2024-01-16T06:45:44;-2.88;87.44
75387;DHT22;63966;47.914;22.266;2024-01-16T06:48:48;-2.73;87.27
75387;DHT22;63966;47.914;22.266;2024-01-16T06:51:52;-2.67;87.46
75387;DHT22;63966;47.914;22.266;2024-01-16T06:54:55;-2.35;86.76
75387;DHT22;63966;47.914;22.266;2024-01-16T06:57:59;-2.33;86.68
75387;DHT22;63966;47.914;22.266;2024-01-16T07:01:03;-2.28;86.26
75387;DHT22;63966;47.914;22.266;2024-01-16T07:04:06;-2.32;86.38
75387;DHT22;63966;47.914;22.266;2024-01-16T07:07:10;-1.04;83.45
75387;DHT22;63966;47.914;22.266;2024-01-16T07:10:13;2.29;73.12
75387;DHT22;63966;47.914;22.266;2024-01-16T07:13:21;4.94;63.12
75387;DHT22;63966;47.914;22.266;2024-01-16T07:16:25;6.23;56.75
75387;DHT22;63966;47.914;22.266;2024-01-16T07:19:28;6.79;55.36
75387;DHT22;63966;47.914;22.266;2024-01-16T07:22:32;8.03;51.67
75387;DHT22;63966;47.914;22.266;2024-01-16T07:25:36;6.71;53.74
75387;DHT22;63966;47.914;22.266;2024-01-16T07:28:39;6.42;54.31
75387;DHT22;63966;47.914;22.266;2024-01-16T07:31:43;7.19;53.05
75387;DHT22;63966;47.914;22.266;2024-01-16T07:34:46;7.27;52.54
75387;DHT22;63966;47.914;22.266;2024-01-16T07:37:50;6.61;54.12
75387;DHT22;63966;47.914;22.266;2024-01-16T07:40:53;5.62;57.71
75387;DHT22;63966;47.914;22.266;2024-01-16T07:43:57;5.54;57.78
75387;DHT22;63966;47.914;22.266;2024-01-16T07:47:00;4.30;61.43
75387;DHT22;63966;47.914;22.266;2024-01-16T07:50:04;4.04;62.91
75387;DHT22;63966;47.914;22.266;2024-01-16T07:53:10;3.20;66.36
75387;DHT22;63966;47.914;22.266;2024-01-16T07:56:14;3.52;66.09
75387;DHT22;63966;47.914;22.266;2024-01-16T07:59:18;3.38;65.67
75387;DHT22;63966;47.914;22.266;2024-01-16T08:02:21;2.63;68.20
75387;DHT22;63966;47.914;22.266;2024-01-16T08:05:28;2.00;71.56
75387;DHT22;63966;47.914;22.266;2024-01-16T08:08:33;1.39;74.48
75387;DHT22;63966;47.914;22.266;2024-01-16T08:11:37;0.84;76.43
75387;DHT22;63966;47.914;22.266;2024-01-16T08:14:42;1.32;75.61
75387;DHT22;63966;47.914;22.266;2024-01-16T08:17:47;1.24;75.24
75387;DHT22;63966;47.914;22.266;2024-01-16T08:20:51;0.95;76.93
75387;DHT22;63966;47.914;22.266;2024-01-16T08:23:54;0.98;76.94
75387;DHT22;63966;47.914;22.266;2024-01-16T08:26:58;1.18;77.12
75387;DHT22;63966;47.914;22.266;2024-01-16T08:30:01;1.21;76.78
75387;DHT22;63966;47.914;22.266;2024-01-16T08:33:05;1.12;77.30
75387;DHT22;63966;47.914;22.266;2024-01-16T08:36:08;1.21;76.21
75387;DHT22;63966;47.914;22.266;2024-01-16T08:39:13;1.46;76.05
75387;DHT22;63966;47.914;22.266;2024-01-16T08:42:19;1.55;76.46
75387;DHT22;63966;47.914;22.266;2024-01-16T08:45:23;1.52;76.08
75387;DHT22;63966;47.914;22.266;2024-01-16T08:48:29;1.77;75.48
75387;DHT22;63966;47.914;22.266;2024-01-16T08:51:34;1.84;75.28
75387;DHT22;63966;47.914;22.266;2024-01-16T08:54:38;1.98;73.24
75387;DHT22;63966;47.914;22.266;2024-01-16T08:57:44;2.15;73.68
75387;DHT22;63966;47.914;22.266;2024-01-16T09:00:49;2.34;72.55
75387;DHT22;63966;47.914;22.266;2024-01-16T09:03:54;2.50;73.76
75387;DHT22;63966;47.914;22.266;2024-01-16T09:06:58;2.57;72.15
75387;DHT22;63966;47.914;22.266;2024-01-16T09:10:02;2.73;70.87
75387;DHT22;63966;47.914;22.266;2024-01-16T09:13:07;2.70;71.55
75387;DHT22;63966;47.914;22.266;2024-01-16T09:16:11;2.79;70.33
75387;DHT22;63966;47.914;22.266;2024-01-16T09:19:15;2.77;71.06
75387;DHT22;63966;47.914;22.266;2024-01-16T09:22:21;2.79;70.50
75387;DHT22;63966;47.914;22.266;2024-01-16T09:25:24;2.90;69.63
75387;DHT22;63966;47.914;22.266;2024-01-16T09:28:30;2.83;70.39
75387;DHT22;63966;47.914;22.266;2024-01-16T09:31:34;3.05;69.44
75387;DHT22;63966;47.914;22.266;2024-01-16T09:34:38;2.86;68.36
75387;DHT22;63966;47.914;22.266;2024-01-16T09:37:43;2.90;68.31
75387;DHT22;63966;47.914;22.266;2024-01-16T09:40:47;2.84;68.73
75387;DHT22;63966;47.914;22.266;2024-01-16T09:43:51;2.93;68.97
75387;DHT22;63966;47.914;22.266;2024-01-16T09:46:55;3.14;68.61
75387;DHT22;63966;47.914;22.266;2024-01-16T09:50:01;3.18;67.13
75387;DHT22;63966;47.914;22.266;2024-01-16T09:53:06;3.03;67.86
75387;DHT22;63966;47.914;22.266;2024-01-16T09:56:15;3.03;67.75
75387;DHT22;63966;47.914;22.266;2024-01-16T09:59:21;3.01;66.67
75387;DHT22;63966;47.914;22.266;2024-01-16T10:02:25;2.84;67.43
75387;DHT22;63966;47.914;22.266;2024-01-16T10:05:31;2.70;67.28
75387;DHT22;63966;47.914;22.266;2024-01-16T10:08:37;3.04;67.76
75387;DHT22;63966;47.914;22.266;2024-01-16T10:11:41;3.07;67.39
75387;DHT22;63966;47.914;22.266;2024-01-16T10:14:46;2.97;67.19
75387;DHT22;63966;47.914;22.266;2024-01-16T10:17:50;3.07;67.61
75387;DHT22;63966;47.914;22.266;2024-01-16T10:20:56;3.03;66.99
75387;DHT22;63966;47.914;22.266;2024-01-16T10:24:11;3.00;66.95
75387;DHT22;63966;47.914;22.266;2024-01-16T10:27:16;3.12;67.28
75387;DHT22;63966;47.914;22.266;2024-01-16T10:30:22;3.14;65.76
75387;DHT22;63966;47.914;22.266;2024-01-16T10:33:27;3.17;66.48
75387;DHT22;63966;47.914;22.266;2024-01-16T10:36:31;3.24;65.52
75387;DHT22;63966;47.914;22.266;2024-01-16T10:39:34;3.29;65.17
75387;DHT22;63966;47.914;22.266;2024-01-16T10:42:46;3.52;64.34
75387;DHT22;63966;47.914;22.266;2024-01-16T10:49:26;3.68;63.47
75387;DHT22;63966;47.914;22.266;2024-01-16T10:52:49;3.55;62.37
75387;DHT22;63966;47.914;22.266;2024-01-16T10:55:53;3.63;62.20
75387;DHT22;63966;47.914;22.266;2024-01-16T11:02:11;3.72;61.59
75387;DHT22;63966;47.914;22.266;2024-01-16T11:05:17;3.62;60.37
75387;DHT22;63966;47.914;22.266;2024-01-16T11:08:42;3.55;60.30
75387;DHT22;63966;47.914;22.266;2024-01-16T11:11:50;3.65;60.19
75387;DHT22;63966;47.914;22.266;2024-01-16T11:15:00;3.68;60.40
75387;DHT22;63966;47.914;22.266;2024-01-16T11:18:09;3.60;59.37
75387;DHT22;63966;47.914;22.266;2024-01-16T11:21:14;3.63;59.06
75387;DHT22;63966;47.914;22.266;2024-01-16T11:24:22;3.59;59.99
75387;DHT22;63966;47.914;22.266;2024-01-16T11:27:26;3.54;60.79
75387;DHT22;63966;47.914;22.266;2024-01-16T11:30:30;3.70;59.91
75387;DHT22;63966;47.914;22.266;2024-01-16T11:36:53;3.65;59.05
75387;DHT22;63966;47.914;22.266;2024-01-16T11:43:35;3.87;57.86
75387;DHT22;63966;47.914;22.266;2024-01-16T11:47:00;3.82;57.91
75387;DHT22;63966;47.914;22.266;2024-01-16T11:50:12;3.73;58.06
75387;DHT22;63966;47.914;22.266;2024-01-16T11:53:34;3.69;57.88
75387;DHT22;63966;47.914;22.266;2024-01-16T12:00:19;3.68;57.49
75387;DHT22;63966;47.914;22.266;2024-01-16T12:03:25;3.70;57.68
75387;DHT22;63966;47.914;22.266;2024-01-16T12:06:37;3.69;57.62
75387;DHT22;63966;47.914;22.266;2024-01-16T12:09:41;3.73;59.08
75387;DHT22;63966;47.914;22.266;2024-01-16T12:12:46;3.79;59.17
75387;DHT22;63966;47.914;22.266;2024-01-16T12:16:00;3.68;59.13
75387;DHT22;63966;47.914;22.266;2024-01-16T12:19:10;3.65;59.61
75387;DHT22;63966;47.914;22.266;2024-01-16T12:22:16;3.59;59.11
75387;DHT22;63966;47.914;22.266;2024-01-16T12:25:29;3.72;58.88
75387;DHT22;63966;47.914;22.266;2024-01-16T12:28:53;3.69;59.57
75387;DHT22;63966;47.914;22.266;2024-01-16T12:32:11;3.85;60.75
75387;DHT22;63966;47.914;22.266;2024-01-16T12:35:22;3.68;60.72
75387;DHT22;63966;47.914;22.266;2024-01-16T12:38:25;3.65;60.66
75387;DHT22;63966;47.914;22.266;2024-01-16T12:41:38;3.69;60.51
75387;DHT22;63966;47.914;22.266;2024-01-16T12:44:45;3.60;59.57
75387;DHT22;63966;47.914;22.266;2024-01-16T12:47:54;3.79;59.57
75387;DHT22;63966;47.914;22.266;2024-01-16T12:51:02;3.83;59.81
75387;DHT22;63966;47.914;22.266;2024-01-16T12:54:15;3.86;60.39
75387;DHT22;63966;47.914;22.266;2024-01-16T12:57:22;3.96;58.31
75387;DHT22;63966;47.914;22.266;2024-01-16T13:00:26;3.90;57.23
75387;DHT22;63966;47.914;22.266;2024-01-16T13:03:30;3.94;56.87
75387;DHT22;63966;47.914;22.266;2024-01-16T13:06:33;3.93;56.35
75387;DHT22;63966;47.914;22.266;2024-01-16T13:09:37;4.13;55.97
75387;DHT22;63966;47.914;22.266;2024-01-16T13:12:41;4.11;56.12
75387;DHT22;63966;47.914;22.266;2024-01-16T13:15:45;3.76;57.33
75387;DHT22;63966;47.914;22.266;2024-01-16T13:19:00;3.51;57.42
75387;DHT22;63966;47.914;22.266;2024-01-16T13:22:05;3.29;58.70
75387;DHT22;63966;47.914;22.266;2024-01-16T13:25:10;3.31;58.50
75387;DHT22;63966;47.914;22.266;2024-01-16T13:28:14;3.21;58.95
75387;DHT22;63966;47.914;22.266;2024-01-16T13:31:18;3.04;59.53
75387;DHT22;63966;47.914;22.266;2024-01-16T13:34:22;3.07;59.67
75387;DHT22;63966;47.914;22.266;2024-01-16T13:37:29;3.07;60.43
75387;DHT22;63966;47.914;22.266;2024-01-16T13:40:33;3.46;59.20
75387;DHT22;63966;47.914;22.266;2024-01-16T13:43:37;3.51;58.72
75387;DHT22;63966;47.914;22.266;2024-01-16T13:46:41;3.55;58.45
75387;DHT22;63966;47.914;22.266;2024-01-16T13:50:03;3.08;58.73
75387;DHT22;63966;47.914;22.266;2024-01-16T13:53:07;3.31;59.05
75387;DHT22;63966;47.914;22.266;2024-01-16T13:56:11;3.05;59.30
75387;DHT22;63966;47.914;22.266;2024-01-16T13:59:15;3.15;58.94
75387;DHT22;63966;47.914;22.266;2024-01-16T14:02:18;3.08;59.31
75387;DHT22;63966;47.914;22.266;2024-01-16T14:05:22;3.07;59.48
75387;DHT22;63966;47.914;22.266;2024-01-16T14:08:26;3.00;59.94
75387;DHT22;63966;47.914;22.266;2024-01-16T14:11:30;3.15;59.86
75387;DHT22;63966;47.914;22.266;2024-01-16T14:14:35;3.36;58.10
75387;DHT22;63966;47.914;22.266;2024-01-16T14:17:38;3.45;58.12
75387;DHT22;63966;47.914;22.266;2024-01-16T14:20:42;3.54;57.78
75387;DHT22;63966;47.914;22.266;2024-01-16T14:23:46;3.38;58.52
75387;DHT22;63966;47.914;22.266;2024-01-16T14:26:50;3.28;58.58
75387;DHT22;63966;47.914;22.266;2024-01-16T14:29:53;3.05;58.81
75387;DHT22;63966;47.914;22.266;2024-01-16T14:32:58;2.97;58.81
75387;DHT22;63966;47.914;22.266;2024-01-16T14:36:02;3.10;59.75
75387;DHT22;63966;47.914;22.266;2024-01-16T14:39:05;2.73;60.44
75387;DHT22;63966;47.914;22.266;2024-01-16T14:42:09;2.86;60.61
75387;DHT22;63966;47.914;22.266;2024-01-16T14:45:15;2.59;61.19
75387;DHT22;63966;47.914;22.266;2024-01-16T14:48:19;2.73;61.17
75387;DHT22;63966;47.914;22.266;2024-01-16T14:51:23;2.75;60.33
75387;DHT22;63966;47.914;22.266;2024-01-16T14:54:27;2.48;60.82
75387;DHT22;63966;47.914;22.266;2024-01-16T14:57:34;2.24;61.34
75387;DHT22;63966;47.914;22.266;2024-01-16T15:00:45;2.07;62.32
75387;DHT22;63966;47.914;22.266;2024-01-16T15:03:52;2.05;62.04
75387;DHT22;63966;47.914;22.266;2024-01-16T15:06:56;1.80;62.20
75387;DHT22;63966;47.914;22.266;2024-01-16T15:10:00;1.90;61.72
75387;DHT22;63966;47.914;22.266;2024-01-16T15:13:04;1.98;61.80
75387;DHT22;63966;47.914;22.266;2024-01-16T15:16:08;1.68;62.40
75387;DHT22;63966;47.914;22.266;2024-01-16T15:19:11;1.59;62.80
75387;DHT22;63966;47.914;22.266;2024-01-16T15:22:15;1.78;62.43
75387;DHT22;63966;47.914;22.266;2024-01-16T15:25:18;1.57;62.08
75387;DHT22;63966;47.914;22.266;2024-01-16T15:28:25;1.63;62.35
75387;DHT22;63966;47.914;22.266;2024-01-16T15:31:29;1.57;62.60
75387;DHT22;63966;47.914;22.266;2024-01-16T15:34:32;1.52;62.09
75387;DHT22;63966;47.914;22.266;2024-01-16T15:37:35;1.47;62.38
75387;DHT22;63966;47.914;22.266;2024-01-16T15:40:39;1.40;63.21
75387;DHT22;63966;47.914;22.266;2024-01-16T15:43:43;1.29;63.02
75387;DHT22;63966;47.914;22.266;2024-01-16T15:47:00;1.47;62.46
75387;DHT22;63966;47.914;22.266;2024-01-16T15:50:05;1.25;63.34
75387;DHT22;63966;47.914;22.266;2024-01-16T15:53:08;1.42;62.44
75387;DHT22;63966;47.914;22.266;2024-01-16T15:56:12;1.31;63.95
75387;DHT22;63966;47.914;22.266;2024-01-16T15:59:16;1.26;64.62
75387;DHT22;63966;47.914;22.266;2024-01-16T16:02:20;1.04;65.45
75387;DHT22;63966;47.914;22.266;2024-01-16T16:05:23;1.07;65.65
75387;DHT22;63966;47.914;22.266;2024-01-16T16:08:28;1.11;65.80
75387;DHT22;63966;47.914;22.266;2024-01-16T16:11:37;1.32;65.06
75387;DHT22;63966;47.914;22.266;2024-01-16T16:14:52;1.26;65.51
75387;DHT22;63966;47.914;22.266;2024-01-16T16:17:56;1.15;66.07
75387;DHT22;63966;47.914;22.266;2024-01-16T16:21:00;1.17;65.81
75387;DHT22;63966;47.914;22.266;2024-01-16T16:24:06;1.05;66.58
75387;DHT22;63966;47.914;22.266;2024-01-16T16:27:25;0.84;67.23
75387;DHT22;63966;47.914;22.266;2024-01-16T16:30:29;0.94;67.15
75387;DHT22;63966;47.914;22.266;2024-01-16T16:33:32;0.77;67.53
75387;DHT22;63966;47.914;22.266;2024-01-16T16:36:37;0.61;68.33
75387;DHT22;63966;47.914;22.266;2024-01-16T16:39:45;0.50;68.72
75387;DHT22;63966;47.914;22.266;2024-01-16T16:42:48;0.54;68.86
75387;DHT22;63966;47.914;22.266;2024-01-16T16:45:51;0.40;69.15
75387;DHT22;63966;47.914;22.266;2024-01-16T16:48:55;0.30;69.97
75387;DHT22;63966;47.914;22.266;2024-01-16T16:51:59;0.19;70.26
75387;DHT22;63966;47.914;22.266;2024-01-16T16:55:02;0.13;70.16
75387;DHT22;63966;47.914;22.266;2024-01-16T16:58:07;-0.01;70.91
75387;DHT22;63966;47.914;22.266;2024-01-16T17:01:14;-0.08;70.96
75387;DHT22;63966;47.914;22.266;2024-01-16T17:04:18;0.02;70.80
75387;DHT22;63966;47.914;22.266;2024-01-16T17:07:22;-0.12;71.45
75387;DHT22;63966;47.914;22.266;2024-01-16T17:10:25;-0.20;71.74
75387;DHT22;63966;47.914;22.266;2024-01-16T17:13:29;-0.22;72.12
75387;DHT22;63966;47.914;22.266;2024-01-16T17:16:32;-0.22;71.96
75387;DHT22;63966;47.914;22.266;2024-01-16T17:19:36;-0.26;72.17
75387;DHT22;63966;47.914;22.266;2024-01-16T17:22:41;-0.27;71.93
75387;DHT22;63966;47.914;22.266;2024-01-16T17:25:44;-0.32;72.24
75387;DHT22;63966;47.914;22.266;2024-01-16T17:28:48;-0.26;71.82
75387;DHT22;63966;47.914;22.266;2024-01-16T17:31:52;-0.25;71.62
75387;DHT22;63966;47.914;22.266;2024-01-16T17:34:58;-0.26;71.92
75387;DHT22;63966;47.914;22.266;2024-01-16T17:38:01;-0.32;71.65
75387;DHT22;63966;47.914;22.266;2024-01-16T17:41:05;-0.29;72.03
75387;DHT22;63966;47.914;22.266;2024-01-16T17:44:08;-0.27;71.90
75387;DHT22;63966;47.914;22.266;2024-01-16T17:47:12;-0.26;71.78
75387;DHT22;63966;47.914;22.266;2024-01-16T17:50:15;-0.03;71.59
75387;DHT22;63966;47.914;22.266;2024-01-16T17:53:19;0.23;70.13
75387;DHT22;63966;47.914;22.266;2024-01-16T17:56:23;0.09;70.50
75387;DHT22;63966;47.914;22.266;2024-01-16T17:59:29;0.06;70.27
75387;DHT22;63966;47.914;22.266;2024-01-16T18:02:35;0.02;70.81
75387;DHT22;63966;47.914;22.266;2024-01-16T18:05:41;-0.09;70.86
75387;DHT22;63966;47.914;22.266;2024-01-16T18:08:45;-0.13;71.02
75387;DHT22;63966;47.914;22.266;2024-01-16T18:11:57;-0.30;71.48
75387;DHT22;63966;47.914;22.266;2024-01-16T18:15:01;-0.30;71.32
75387;DHT22;63966;47.914;22.266;2024-01-16T18:18:04;-0.25;71.26
75387;DHT22;63966;47.914;22.266;2024-01-16T18:21:10;-0.23;71.08
75387;DHT22;63966;47.914;22.266;2024-01-16T18:24:16;-0.30;70.73
75387;DHT22;63966;47.914;22.266;2024-01-16T18:27:20;-0.26;70.56
75387;DHT22;63966;47.914;22.266;2024-01-16T18:30:23;-0.05;69.85
75387;DHT22;63966;47.914;22.266;2024-01-16T18:33:30;-0.33;70.66
75387;DHT22;63966;47.914;22.266;2024-01-16T18:36:33;-0.44;70.84
75387;DHT22;63966;47.914;22.266;2024-01-16T18:39:37;-0.26;70.47
75387;DHT22;63966;47.914;22.266;2024-01-16T18:42:44;-0.52;71.16
75387;DHT22;63966;47.914;22.266;2024-01-16T18:45:47;-0.57;71.50
75387;DHT22;63966;47.914;22.266;2024-01-16T18:48:51;-0.60;71.52
75387;DHT22;63966;47.914;22.266;2024-01-16T18:51:55;-0.57;71.46
75387;DHT22;63966;47.914;22.266;2024-01-16T18:55:02;-0.53;70.98
75387;DHT22;63966;47.914;22.266;2024-01-16T18:58:12;-0.58;71.39
75387;DHT22;63966;47.914;22.266;2024-01-16T19:01:16;-0.57;71.08
75387;DHT22;63966;47.914;22.266;2024-01-16T19:04:20;-0.67;71.75
75387;DHT22;63966;47.914;22.266;2024-01-16T19:07:26;-0.60;71.67
75387;DHT22;63966;47.914;22.266;2024-01-16T19:10:29;-0.66;71.77
75387;DHT22;63966;47.914;22.266;2024-01-16T19:13:33;-0.70;71.57
75387;DHT22;63966;47.914;22.266;2024-01-16T19:16:37;-0.57;71.24
75387;DHT22;63966;47.914;22.266;2024-01-16T19:19:41;-0.63;71.35
75387;DHT22;63966;47.914;22.266;2024-01-16T19:22:44;-0.63;71.79
75387;DHT22;63966;47.914;22.266;2024-01-16T19:25:48;-0.64;71.48
75387;DHT22;63966;47.914;22.266;2024-01-16T19:28:51;-0.58;71.22
75387;DHT22;63966;47.914;22.266;2024-01-16T19:31:56;-0.56;71.19
75387;DHT22;63966;47.914;22.266;2024-01-16T19:35:00;-0.47;71.04